ETHF/FRZ METAR and TAF weather

Enter ICAO airport designator
Station Type Date Time Source
ETHF METAR 2018/09/21 22:20 UTC NOAA

ETHF 212220Z AUTO 22008KT 9000 // ////// 09/06 Q1016 ///


Station Type Date Time Source
ETHF Decoded METAR 2018/09/21 22:20 UTC NOAA

Fritzlar, Germany (ETHF) 51-07N 009-17E 181M
Sep 21, 2018 - 06:20 PM EDT / 2018.09.21 2220 UTC
Wind: from the SW (220 degrees) at 9 MPH (8 KT):0
Visibility: 5 mile(s):0
Temperature: 48 F (9 C)
Dew Point: 42 F (6 C)
Relative Humidity: 81%
Pressure (altimeter): 30.00 in. Hg (1016 hPa)
ob: ETHF 212220Z AUTO 22008KT 9000 // ////// 09/06 Q1016 ///
cycle: 22

Station Type Date Time Source
ETHF TAF 2018/05/18 05:37 UTC NOAA

TAF ETHF 180407Z 1805/1818 35006KT 9999 NSW BKN020
TEMPO 1805/1808 33005KT 9999 NSW BKN012
BECMG 1809/1811 36008KT 9999 NSW SCT030 BKN180


Example: see airport list